sensor_id;sensor_type;location;lat;lon;timestamp;P1;durP1;ratioP1;P2;durP2;ratioP2
16113;SDS011;8161;-33.910;151.156;2024-03-08T00:00:15;13.10;;;3.55;;
16113;SDS011;8161;-33.910;151.156;2024-03-08T00:02:47;13.20;;;3.50;;
16113;SDS011;8161;-33.910;151.156;2024-03-08T00:05:16;9.70;;;2.83;;
16113;SDS011;8161;-33.910;151.156;2024-03-08T00:07:47;11.25;;;3.30;;
16113;SDS011;8161;-33.910;151.156;2024-03-08T00:10:17;12.75;;;3.20;;
16113;SDS011;8161;-33.910;151.156;2024-03-08T00:12:46;14.20;;;3.70;;
16113;SDS011;8161;-33.910;151.156;2024-03-08T00:15:14;13.27;;;3.33;;
16113;SDS011;8161;-33.910;151.156;2024-03-08T00:17:45;12.93;;;3.25;;
16113;SDS011;8161;-33.910;151.156;2024-03-08T00:20:12;12.98;;;3.20;;
16113;SDS011;8161;-33.910;151.156;2024-03-08T00:22:39;16.58;;;3.58;;
16113;SDS011;8161;-33.910;151.156;2024-03-08T00:25:06;14.23;;;3.58;;
16113;SDS011;8161;-33.910;151.156;2024-03-08T00:27:39;11.05;;;2.72;;
16113;SDS011;8161;-33.910;151.156;2024-03-08T00:30:07;11.25;;;2.97;;
16113;SDS011;8161;-33.910;151.156;2024-03-08T00:32:34;9.18;;;2.47;;
16113;SDS011;8161;-33.910;151.156;2024-03-08T00:35:05;11.00;;;2.55;;
16113;SDS011;8161;-33.910;151.156;2024-03-08T00:37:32;10.18;;;2.63;;
16113;SDS011;8161;-33.910;151.156;2024-03-08T00:40:03;14.13;;;3.10;;
16113;SDS011;8161;-33.910;151.156;2024-03-08T00:42:32;12.38;;;3.22;;
16113;SDS011;8161;-33.910;151.156;2024-03-08T00:44:59;9.82;;;2.78;;
16113;SDS011;8161;-33.910;151.156;2024-03-08T00:47:26;13.15;;;2.70;;
16113;SDS011;8161;-33.910;151.156;2024-03-08T00:49:54;14.10;;;2.80;;
16113;SDS011;8161;-33.910;151.156;2024-03-08T00:52:22;9.50;;;2.78;;
16113;SDS011;8161;-33.910;151.156;2024-03-08T00:54:50;9.48;;;2.60;;
16113;SDS011;8161;-33.910;151.156;2024-03-08T00:57:17;13.07;;;2.60;;
16113;SDS011;8161;-33.910;151.156;2024-03-08T00:59:44;12.25;;;3.40;;
16113;SDS011;8161;-33.910;151.156;2024-03-08T01:02:11;11.75;;;3.22;;
16113;SDS011;8161;-33.910;151.156;2024-03-08T01:04:38;13.10;;;3.00;;
16113;SDS011;8161;-33.910;151.156;2024-03-08T01:07:05;13.37;;;3.20;;
16113;SDS011;8161;-33.910;151.156;2024-03-08T01:09:33;10.95;;;2.75;;
16113;SDS011;8161;-33.910;151.156;2024-03-08T01:12:00;9.57;;;2.92;;
16113;SDS011;8161;-33.910;151.156;2024-03-08T01:14:27;14.57;;;3.35;;
16113;SDS011;8161;-33.910;151.156;2024-03-08T01:16:55;12.00;;;2.72;;
16113;SDS011;8161;-33.910;151.156;2024-03-08T01:19:22;12.30;;;3.13;;
16113;SDS011;8161;-33.910;151.156;2024-03-08T01:21:50;11.77;;;3.95;;
16113;SDS011;8161;-33.910;151.156;2024-03-08T01:24:17;12.07;;;3.30;;
16113;SDS011;8161;-33.910;151.156;2024-03-08T01:26:44;14.05;;;3.78;;
16113;SDS011;8161;-33.910;151.156;2024-03-08T01:29:12;10.27;;;2.95;;
16113;SDS011;8161;-33.910;151.156;2024-03-08T01:31:39;12.43;;;3.78;;
16113;SDS011;8161;-33.910;151.156;2024-03-08T01:34:07;15.02;;;4.20;;
16113;SDS011;8161;-33.910;151.156;2024-03-08T01:36:34;12.15;;;3.50;;
16113;SDS011;8161;-33.910;151.156;2024-03-08T01:39:02;14.77;;;3.17;;
16113;SDS011;8161;-33.910;151.156;2024-03-08T01:41:33;14.37;;;3.60;;
16113;SDS011;8161;-33.910;151.156;2024-03-08T01:44:01;15.53;;;3.33;;
16113;SDS011;8161;-33.910;151.156;2024-03-08T01:46:29;12.60;;;2.97;;
16113;SDS011;8161;-33.910;151.156;2024-03-08T01:48:57;16.83;;;3.50;;
16113;SDS011;8161;-33.910;151.156;2024-03-08T01:51:26;12.80;;;3.05;;
16113;SDS011;8161;-33.910;151.156;2024-03-08T01:53:54;9.80;;;2.67;;
16113;SDS011;8161;-33.910;151.156;2024-03-08T01:56:25;12.25;;;3.20;;
16113;SDS011;8161;-33.910;151.156;2024-03-08T01:58:53;12.35;;;3.33;;
16113;SDS011;8161;-33.910;151.156;2024-03-08T02:01:21;11.45;;;2.67;;
16113;SDS011;8161;-33.910;151.156;2024-03-08T02:03:49;11.90;;;2.87;;
16113;SDS011;8161;-33.910;151.156;2024-03-08T02:06:16;13.23;;;3.28;;
16113;SDS011;8161;-33.910;151.156;2024-03-08T02:08:43;10.60;;;2.80;;
16113;SDS011;8161;-33.910;151.156;2024-03-08T02:11:12;15.20;;;2.95;;
16113;SDS011;8161;-33.910;151.156;2024-03-08T02:13:40;11.05;;;3.00;;
16113;SDS011;8161;-33.910;151.156;2024-03-08T02:16:07;14.95;;;3.05;;
16113;SDS011;8161;-33.910;151.156;2024-03-08T02:18:35;11.80;;;2.65;;
16113;SDS011;8161;-33.910;151.156;2024-03-08T02:21:05;14.20;;;3.83;;
16113;SDS011;8161;-33.910;151.156;2024-03-08T02:23:34;12.38;;;3.03;;
16113;SDS011;8161;-33.910;151.156;2024-03-08T02:26:01;11.32;;;2.60;;
16113;SDS011;8161;-33.910;151.156;2024-03-08T02:28:30;13.85;;;2.30;;
16113;SDS011;8161;-33.910;151.156;2024-03-08T02:30:57;11.27;;;2.08;;
16113;SDS011;8161;-33.910;151.156;2024-03-08T02:33:25;16.10;;;3.40;;
16113;SDS011;8161;-33.910;151.156;2024-03-08T02:35:53;13.43;;;2.80;;
16113;SDS011;8161;-33.910;151.156;2024-03-08T02:38:21;9.88;;;2.45;;
16113;SDS011;8161;-33.910;151.156;2024-03-08T02:40:50;9.02;;;1.73;;
16113;SDS011;8161;-33.910;151.156;2024-03-08T02:43:19;6.25;;;2.08;;
16113;SDS011;8161;-33.910;151.156;2024-03-08T02:45:47;7.63;;;1.80;;
16113;SDS011;8161;-33.910;151.156;2024-03-08T02:48:15;5.28;;;1.52;;
16113;SDS011;8161;-33.910;151.156;2024-03-08T02:50:42;6.10;;;1.57;;
16113;SDS011;8161;-33.910;151.156;2024-03-08T02:53:10;5.55;;;1.35;;
16113;SDS011;8161;-33.910;151.156;2024-03-08T02:55:37;8.40;;;1.60;;
16113;SDS011;8161;-33.910;151.156;2024-03-08T02:58:06;5.78;;;1.40;;
16113;SDS011;8161;-33.910;151.156;2024-03-08T03:00:38;4.80;;;1.23;;
16113;SDS011;8161;-33.910;151.156;2024-03-08T03:03:06;4.45;;;1.38;;
16113;SDS011;8161;-33.910;151.156;2024-03-08T03:05:34;5.72;;;1.10;;
16113;SDS011;8161;-33.910;151.156;2024-03-08T03:08:01;3.90;;;0.77;;
16113;SDS011;8161;-33.910;151.156;2024-03-08T03:10:34;4.27;;;0.83;;
16113;SDS011;8161;-33.910;151.156;2024-03-08T03:13:02;3.50;;;0.90;;
16113;SDS011;8161;-33.910;151.156;2024-03-08T03:15:30;3.75;;;1.10;;
16113;SDS011;8161;-33.910;151.156;2024-03-08T03:17:59;3.30;;;0.75;;
16113;SDS011;8161;-33.910;151.156;2024-03-08T03:20:26;3.05;;;0.70;;
16113;SDS011;8161;-33.910;151.156;2024-03-08T03:22:58;5.38;;;0.90;;
16113;SDS011;8161;-33.910;151.156;2024-03-08T03:25:28;3.72;;;0.98;;
16113;SDS011;8161;-33.910;151.156;2024-03-08T03:27:59;3.72;;;0.90;;
16113;SDS011;8161;-33.910;151.156;2024-03-08T03:30:26;4.50;;;0.85;;
16113;SDS011;8161;-33.910;151.156;2024-03-08T03:33:01;5.47;;;1.10;;
16113;SDS011;8161;-33.910;151.156;2024-03-08T03:35:38;5.47;;;1.20;;
16113;SDS011;8161;-33.910;151.156;2024-03-08T03:38:06;5.63;;;0.90;;
16113;SDS011;8161;-33.910;151.156;2024-03-08T03:40:34;5.00;;;1.73;;
16113;SDS011;8161;-33.910;151.156;2024-03-08T03:43:01;4.22;;;1.00;;
16113;SDS011;8161;-33.910;151.156;2024-03-08T03:45:29;4.45;;;0.90;;
16113;SDS011;8161;-33.910;151.156;2024-03-08T03:48:03;4.15;;;1.00;;
16113;SDS011;8161;-33.910;151.156;2024-03-08T03:50:32;2.77;;;0.70;;
16113;SDS011;8161;-33.910;151.156;2024-03-08T03:53:02;3.60;;;0.90;;
16113;SDS011;8161;-33.910;151.156;2024-03-08T03:55:29;3.20;;;0.90;;
16113;SDS011;8161;-33.910;151.156;2024-03-08T03:57:57;5.30;;;1.02;;
16113;SDS011;8161;-33.910;151.156;2024-03-08T04:00:26;3.58;;;0.50;;
16113;SDS011;8161;-33.910;151.156;2024-03-08T04:02:54;2.85;;;0.70;;
16113;SDS011;8161;-33.910;151.156;2024-03-08T04:05:24;3.20;;;0.77;;
16113;SDS011;8161;-33.910;151.156;2024-03-08T04:07:51;3.53;;;0.80;;
16113;SDS011;8161;-33.910;151.156;2024-03-08T04:10:19;3.38;;;0.88;;
16113;SDS011;8161;-33.910;151.156;2024-03-08T04:12:46;3.72;;;0.90;;
16113;SDS011;8161;-33.910;151.156;2024-03-08T04:15:13;5.22;;;0.95;;
16113;SDS011;8161;-33.910;151.156;2024-03-08T04:17:40;5.65;;;1.20;;
16113;SDS011;8161;-33.910;151.156;2024-03-08T04:20:07;3.27;;;0.60;;
16113;SDS011;8161;-33.910;151.156;2024-03-08T04:22:39;3.17;;;0.68;;
16113;SDS011;8161;-33.910;151.156;2024-03-08T04:25:06;3.03;;;0.60;;
16113;SDS011;8161;-33.910;151.156;2024-03-08T04:27:35;3.85;;;0.70;;
16113;SDS011;8161;-33.910;151.156;2024-03-08T04:30:03;4.60;;;0.77;;
16113;SDS011;8161;-33.910;151.156;2024-03-08T04:32:33;2.93;;;0.60;;
16113;SDS011;8161;-33.910;151.156;2024-03-08T04:35:00;5.55;;;1.48;;
16113;SDS011;8161;-33.910;151.156;2024-03-08T04:37:28;4.47;;;0.90;;
16113;SDS011;8161;-33.910;151.156;2024-03-08T04:39:56;4.25;;;0.82;;
16113;SDS011;8161;-33.910;151.156;2024-03-08T04:42:24;5.38;;;0.85;;
16113;SDS011;8161;-33.910;151.156;2024-03-08T04:44:52;5.93;;;0.73;;
16113;SDS011;8161;-33.910;151.156;2024-03-08T04:47:19;3.45;;;0.70;;
16113;SDS011;8161;-33.910;151.156;2024-03-08T04:49:46;3.25;;;0.70;;
16113;SDS011;8161;-33.910;151.156;2024-03-08T04:52:13;3.40;;;0.70;;
16113;SDS011;8161;-33.910;151.156;2024-03-08T04:54:41;4.47;;;0.85;;
16113;SDS011;8161;-33.910;151.156;2024-03-08T04:57:10;3.92;;;0.70;;
16113;SDS011;8161;-33.910;151.156;2024-03-08T04:59:37;4.40;;;0.60;;
16113;SDS011;8161;-33.910;151.156;2024-03-08T05:02:04;4.35;;;0.68;;
16113;SDS011;8161;-33.910;151.156;2024-03-08T05:04:32;2.05;;;0.43;;
16113;SDS011;8161;-33.910;151.156;2024-03-08T05:07:00;2.92;;;0.52;;
16113;SDS011;8161;-33.910;151.156;2024-03-08T05:09:29;2.90;;;0.70;;
16113;SDS011;8161;-33.910;151.156;2024-03-08T05:11:57;2.10;;;0.60;;
16113;SDS011;8161;-33.910;151.156;2024-03-08T05:14:24;3.35;;;0.88;;
16113;SDS011;8161;-33.910;151.156;2024-03-08T05:16:51;2.07;;;0.50;;
16113;SDS011;8161;-33.910;151.156;2024-03-08T05:19:19;3.42;;;0.60;;
16113;SDS011;8161;-33.910;151.156;2024-03-08T05:21:47;4.20;;;0.60;;
16113;SDS011;8161;-33.910;151.156;2024-03-08T05:24:16;2.00;;;0.50;;
16113;SDS011;8161;-33.910;151.156;2024-03-08T05:26:43;3.67;;;0.60;;
16113;SDS011;8161;-33.910;151.156;2024-03-08T05:29:11;2.80;;;0.70;;
16113;SDS011;8161;-33.910;151.156;2024-03-08T05:31:49;4.45;;;0.60;;
16113;SDS011;8161;-33.910;151.156;2024-03-08T05:34:21;2.47;;;0.80;;
16113;SDS011;8161;-33.910;151.156;2024-03-08T05:36:48;5.22;;;0.80;;
16113;SDS011;8161;-33.910;151.156;2024-03-08T05:39:16;2.37;;;0.60;;
16113;SDS011;8161;-33.910;151.156;2024-03-08T05:41:45;3.42;;;0.80;;
16113;SDS011;8161;-33.910;151.156;2024-03-08T05:44:12;3.95;;;0.80;;
16113;SDS011;8161;-33.910;151.156;2024-03-08T05:46:40;2.72;;;0.70;;
16113;SDS011;8161;-33.910;151.156;2024-03-08T05:49:08;4.77;;;0.70;;
16113;SDS011;8161;-33.910;151.156;2024-03-08T05:51:37;4.88;;;0.82;;
16113;SDS011;8161;-33.910;151.156;2024-03-08T05:54:06;5.80;;;0.88;;
16113;SDS011;8161;-33.910;151.156;2024-03-08T05:56:38;4.05;;;0.85;;
16113;SDS011;8161;-33.910;151.156;2024-03-08T05:59:09;3.53;;;0.82;;
16113;SDS011;8161;-33.910;151.156;2024-03-08T06:01:38;4.07;;;0.90;;
16113;SDS011;8161;-33.910;151.156;2024-03-08T06:04:06;3.33;;;0.73;;
16113;SDS011;8161;-33.910;151.156;2024-03-08T06:06:34;4.70;;;0.83;;
16113;SDS011;8161;-33.910;151.156;2024-03-08T06:09:03;2.47;;;0.80;;
16113;SDS011;8161;-33.910;151.156;2024-03-08T06:11:37;2.45;;;0.60;;
16113;SDS011;8161;-33.910;151.156;2024-03-08T06:14:04;4.97;;;0.73;;
16113;SDS011;8161;-33.910;151.156;2024-03-08T06:16:31;1.98;;;0.63;;
16113;SDS011;8161;-33.910;151.156;2024-03-08T06:18:59;2.00;;;0.60;;
16113;SDS011;8161;-33.910;151.156;2024-03-08T06:21:28;3.20;;;0.73;;
16113;SDS011;8161;-33.910;151.156;2024-03-08T06:23:55;4.00;;;1.10;;
16113;SDS011;8161;-33.910;151.156;2024-03-08T06:26:25;3.35;;;0.68;;
16113;SDS011;8161;-33.910;151.156;2024-03-08T06:28:55;1.83;;;0.70;;
16113;SDS011;8161;-33.910;151.156;2024-03-08T06:31:22;2.40;;;0.80;;
16113;SDS011;8161;-33.910;151.156;2024-03-08T06:33:50;3.72;;;0.90;;
16113;SDS011;8161;-33.910;151.156;2024-03-08T06:36:20;2.53;;;0.50;;
16113;SDS011;8161;-33.910;151.156;2024-03-08T06:38:50;3.47;;;0.68;;
16113;SDS011;8161;-33.910;151.156;2024-03-08T06:41:17;3.25;;;0.82;;
16113;SDS011;8161;-33.910;151.156;2024-03-08T06:43:45;4.28;;;0.80;;
16113;SDS011;8161;-33.910;151.156;2024-03-08T06:46:16;3.40;;;0.80;;
16113;SDS011;8161;-33.910;151.156;2024-03-08T06:48:46;3.65;;;0.80;;
16113;SDS011;8161;-33.910;151.156;2024-03-08T06:51:14;4.13;;;0.70;;
16113;SDS011;8161;-33.910;151.156;2024-03-08T06:53:42;4.00;;;0.80;;
16113;SDS011;8161;-33.910;151.156;2024-03-08T06:56:10;2.63;;;0.70;;
16113;SDS011;8161;-33.910;151.156;2024-03-08T06:58:37;2.85;;;0.80;;
16113;SDS011;8161;-33.910;151.156;2024-03-08T07:01:04;2.67;;;0.90;;
16113;SDS011;8161;-33.910;151.156;2024-03-08T07:03:33;5.35;;;0.80;;
16113;SDS011;8161;-33.910;151.156;2024-03-08T07:06:00;3.28;;;0.88;;
16113;SDS011;8161;-33.910;151.156;2024-03-08T07:08:28;3.05;;;0.90;;
16113;SDS011;8161;-33.910;151.156;2024-03-08T07:10:58;6.27;;;1.17;;
16113;SDS011;8161;-33.910;151.156;2024-03-08T07:13:25;1.95;;;0.70;;
16113;SDS011;8161;-33.910;151.156;2024-03-08T07:15:53;2.45;;;0.60;;
16113;SDS011;8161;-33.910;151.156;2024-03-08T07:18:21;3.73;;;1.00;;
16113;SDS011;8161;-33.910;151.156;2024-03-08T07:20:48;3.35;;;0.75;;
16113;SDS011;8161;-33.910;151.156;2024-03-08T07:23:15;4.18;;;0.80;;
16113;SDS011;8161;-33.910;151.156;2024-03-08T07:26:02;3.57;;;0.80;;
16113;SDS011;8161;-33.910;151.156;2024-03-08T07:28:29;5.22;;;1.08;;
16113;SDS011;8161;-33.910;151.156;2024-03-08T07:30:59;3.00;;;0.90;;
16113;SDS011;8161;-33.910;151.156;2024-03-08T07:33:40;3.90;;;1.00;;
16113;SDS011;8161;-33.910;151.156;2024-03-08T07:36:07;3.30;;;0.65;;
16113;SDS011;8161;-33.910;151.156;2024-03-08T07:38:34;3.92;;;1.00;;
16113;SDS011;8161;-33.910;151.156;2024-03-08T07:41:01;3.85;;;0.82;;
16113;SDS011;8161;-33.910;151.156;2024-03-08T07:43:28;5.00;;;1.23;;
16113;SDS011;8161;-33.910;151.156;2024-03-08T07:45:56;5.03;;;1.10;;
16113;SDS011;8161;-33.910;151.156;2024-03-08T07:48:23;2.35;;;1.00;;
16113;SDS011;8161;-33.910;151.156;2024-03-08T07:50:51;3.20;;;1.10;;
16113;SDS011;8161;-33.910;151.156;2024-03-08T07:53:18;4.60;;;1.30;;
16113;SDS011;8161;-33.910;151.156;2024-03-08T07:55:45;5.60;;;1.60;;
16113;SDS011;8161;-33.910;151.156;2024-03-08T07:58:13;3.65;;;1.50;;
16113;SDS011;8161;-33.910;151.156;2024-03-08T08:00:40;5.60;;;1.60;;
16113;SDS011;8161;-33.910;151.156;2024-03-08T08:03:08;7.38;;;1.27;;
16113;SDS011;8161;-33.910;151.156;2024-03-08T08:05:35;3.08;;;1.10;;
16113;SDS011;8161;-33.910;151.156;2024-03-08T08:08:07;4.43;;;1.05;;
16113;SDS011;8161;-33.910;151.156;2024-03-08T08:10:36;3.78;;;1.00;;
16113;SDS011;8161;-33.910;151.156;2024-03-08T08:13:04;5.18;;;0.90;;
16113;SDS011;8161;-33.910;151.156;2024-03-08T08:15:31;4.77;;;0.90;;
16113;SDS011;8161;-33.910;151.156;2024-03-08T08:18:01;2.45;;;0.90;;
16113;SDS011;8161;-33.910;151.156;2024-03-08T08:20:31;2.88;;;0.90;;
16113;SDS011;8161;-33.910;151.156;2024-03-08T08:22:58;3.70;;;1.30;;
16113;SDS011;8161;-33.910;151.156;2024-03-08T08:25:25;4.63;;;1.15;;
16113;SDS011;8161;-33.910;151.156;2024-03-08T08:27:52;4.60;;;1.03;;
16113;SDS011;8161;-33.910;151.156;2024-03-08T08:30:19;5.85;;;1.35;;
16113;SDS011;8161;-33.910;151.156;2024-03-08T08:32:47;5.60;;;1.05;;
16113;SDS011;8161;-33.910;151.156;2024-03-08T08:35:17;3.80;;;0.95;;
16113;SDS011;8161;-33.910;151.156;2024-03-08T08:37:45;5.90;;;1.50;;
16113;SDS011;8161;-33.910;151.156;2024-03-08T08:40:12;5.53;;;1.30;;
16113;SDS011;8161;-33.910;151.156;2024-03-08T08:42:44;4.13;;;1.20;;
16113;SDS011;8161;-33.910;151.156;2024-03-08T08:45:11;3.63;;;0.90;;
16113;SDS011;8161;-33.910;151.156;2024-03-08T08:47:39;3.15;;;0.90;;
16113;SDS011;8161;-33.910;151.156;2024-03-08T08:50:08;4.80;;;1.20;;
16113;SDS011;8161;-33.910;151.156;2024-03-08T08:52:37;5.90;;;1.15;;
16113;SDS011;8161;-33.910;151.156;2024-03-08T08:55:05;5.55;;;1.02;;
16113;SDS011;8161;-33.910;151.156;2024-03-08T08:57:32;7.63;;;1.52;;
16113;SDS011;8161;-33.910;151.156;2024-03-08T09:00:01;2.92;;;1.13;;
16113;SDS011;8161;-33.910;151.156;2024-03-08T09:02:33;5.03;;;1.40;;
16113;SDS011;8161;-33.910;151.156;2024-03-08T09:05:00;3.42;;;0.90;;
16113;SDS011;8161;-33.910;151.156;2024-03-08T09:07:28;4.95;;;1.60;;
16113;SDS011;8161;-33.910;151.156;2024-03-08T09:09:55;2.88;;;1.00;;
16113;SDS011;8161;-33.910;151.156;2024-03-08T09:12:24;4.73;;;1.43;;
16113;SDS011;8161;-33.910;151.156;2024-03-08T09:14:51;4.83;;;1.23;;
16113;SDS011;8161;-33.910;151.156;2024-03-08T09:17:18;4.55;;;1.10;;
16113;SDS011;8161;-33.910;151.156;2024-03-08T09:19:49;4.90;;;1.35;;
16113;SDS011;8161;-33.910;151.156;2024-03-08T09:22:16;3.95;;;1.20;;
16113;SDS011;8161;-33.910;151.156;2024-03-08T09:24:44;5.70;;;1.20;;
16113;SDS011;8161;-33.910;151.156;2024-03-08T09:27:11;5.95;;;1.25;;
16113;SDS011;8161;-33.910;151.156;2024-03-08T09:29:39;6.45;;;1.27;;
16113;SDS011;8161;-33.910;151.156;2024-03-08T09:32:06;4.07;;;1.10;;
16113;SDS011;8161;-33.910;151.156;2024-03-08T09:34:33;3.50;;;1.48;;
16113;SDS011;8161;-33.910;151.156;2024-03-08T09:37:01;6.65;;;1.20;;
16113;SDS011;8161;-33.910;151.156;2024-03-08T09:39:30;3.45;;;1.00;;
16113;SDS011;8161;-33.910;151.156;2024-03-08T09:41:58;3.97;;;1.13;;
16113;SDS011;8161;-33.910;151.156;2024-03-08T09:44:26;3.45;;;0.93;;
16113;SDS011;8161;-33.910;151.156;2024-03-08T09:46:56;4.03;;;1.13;;
16113;SDS011;8161;-33.910;151.156;2024-03-08T09:49:27;3.65;;;1.00;;
16113;SDS011;8161;-33.910;151.156;2024-03-08T09:51:55;6.30;;;1.40;;
16113;SDS011;8161;-33.910;151.156;2024-03-08T09:54:23;4.25;;;1.20;;
16113;SDS011;8161;-33.910;151.156;2024-03-08T09:56:52;4.37;;;1.10;;
16113;SDS011;8161;-33.910;151.156;2024-03-08T09:59:22;5.15;;;0.95;;
16113;SDS011;8161;-33.910;151.156;2024-03-08T10:01:49;8.27;;;1.20;;
16113;SDS011;8161;-33.910;151.156;2024-03-08T10:04:17;3.20;;;0.90;;
16113;SDS011;8161;-33.910;151.156;2024-03-08T10:06:46;6.47;;;1.00;;
16113;SDS011;8161;-33.910;151.156;2024-03-08T10:09:14;4.43;;;1.05;;
16113;SDS011;8161;-33.910;151.156;2024-03-08T10:11:42;3.97;;;0.93;;
16113;SDS011;8161;-33.910;151.156;2024-03-08T10:14:09;4.40;;;0.90;;
16113;SDS011;8161;-33.910;151.156;2024-03-08T10:16:39;4.38;;;1.00;;
16113;SDS011;8161;-33.910;151.156;2024-03-08T10:19:07;4.60;;;1.00;;
16113;SDS011;8161;-33.910;151.156;2024-03-08T10:21:35;5.35;;;0.98;;
16113;SDS011;8161;-33.910;151.156;2024-03-08T10:24:13;4.37;;;1.73;;
16113;SDS011;8161;-33.910;151.156;2024-03-08T10:26:40;4.70;;;0.98;;
16113;SDS011;8161;-33.910;151.156;2024-03-08T10:29:09;3.97;;;0.80;;
16113;SDS011;8161;-33.910;151.156;2024-03-08T10:31:43;5.40;;;1.00;;
16113;SDS011;8161;-33.910;151.156;2024-03-08T10:34:11;4.65;;;1.00;;
16113;SDS011;8161;-33.910;151.156;2024-03-08T10:36:41;3.25;;;0.82;;
16113;SDS011;8161;-33.910;151.156;2024-03-08T10:41:56;4.25;;;0.75;;
16113;SDS011;8161;-33.910;151.156;2024-03-08T10:44:30;4.43;;;1.00;;
16113;SDS011;8161;-33.910;151.156;2024-03-08T10:47:21;5.03;;;1.20;;
16113;SDS011;8161;-33.910;151.156;2024-03-08T10:50:29;4.78;;;0.85;;
16113;SDS011;8161;-33.910;151.156;2024-03-08T10:52:51;5.45;;;1.35;;
16113;SDS011;8161;-33.910;151.156;2024-03-08T10:55:18;3.97;;;1.02;;
16113;SDS011;8161;-33.910;151.156;2024-03-08T10:57:48;4.28;;;0.98;;
16113;SDS011;8161;-33.910;151.156;2024-03-08T11:00:16;4.45;;;0.90;;
16113;SDS011;8161;-33.910;151.156;2024-03-08T11:02:52;5.63;;;0.90;;
16113;SDS011;8161;-33.910;151.156;2024-03-08T11:10:49;5.28;;;0.90;;
16113;SDS011;8161;-33.910;151.156;2024-03-08T11:16:12;3.40;;;0.90;;
16113;SDS011;8161;-33.910;151.156;2024-03-08T11:19:07;3.95;;;0.88;;
16113;SDS011;8161;-33.910;151.156;2024-03-08T11:24:36;3.33;;;0.80;;
16113;SDS011;8161;-33.910;151.156;2024-03-08T11:27:07;4.80;;;1.08;;
16113;SDS011;8161;-33.910;151.156;2024-03-08T11:29:35;2.38;;;0.88;;
16113;SDS011;8161;-33.910;151.156;2024-03-08T11:32:14;3.57;;;0.83;;
16113;SDS011;8161;-33.910;151.156;2024-03-08T11:34:48;4.63;;;0.93;;
16113;SDS011;8161;-33.910;151.156;2024-03-08T11:37:16;3.78;;;0.90;;
16113;SDS011;8161;-33.910;151.156;2024-03-08T11:39:46;6.60;;;1.05;;
16113;SDS011;8161;-33.910;151.156;2024-03-08T11:42:18;4.60;;;1.07;;
16113;SDS011;8161;-33.910;151.156;2024-03-08T11:44:46;6.10;;;1.08;;
16113;SDS011;8161;-33.910;151.156;2024-03-08T11:47:14;4.72;;;0.98;;
16113;SDS011;8161;-33.910;151.156;2024-03-08T11:49:41;8.10;;;1.33;;
16113;SDS011;8161;-33.910;151.156;2024-03-08T11:52:16;6.45;;;1.00;;
16113;SDS011;8161;-33.910;151.156;2024-03-08T11:54:48;3.90;;;0.80;;
16113;SDS011;8161;-33.910;151.156;2024-03-08T11:57:24;6.63;;;1.03;;
16113;SDS011;8161;-33.910;151.156;2024-03-08T11:59:52;7.67;;;1.23;;
16113;SDS011;8161;-33.910;151.156;2024-03-08T12:02:24;4.70;;;0.90;;
16113;SDS011;8161;-33.910;151.156;2024-03-08T12:04:59;2.55;;;0.70;;
16113;SDS011;8161;-33.910;151.156;2024-03-08T12:07:29;3.13;;;0.80;;
16113;SDS011;8161;-33.910;151.156;2024-03-08T12:12:48;5.10;;;0.93;;
16113;SDS011;8161;-33.910;151.156;2024-03-08T12:15:17;5.07;;;1.20;;
16113;SDS011;8161;-33.910;151.156;2024-03-08T12:17:55;4.60;;;1.00;;
16113;SDS011;8161;-33.910;151.156;2024-03-08T12:20:26;3.65;;;1.00;;
16113;SDS011;8161;-33.910;151.156;2024-03-08T12:22:58;5.30;;;0.90;;
16113;SDS011;8161;-33.910;151.156;2024-03-08T12:25:32;2.85;;;0.70;;
16113;SDS011;8161;-33.910;151.156;2024-03-08T12:28:10;4.30;;;0.80;;
16113;SDS011;8161;-33.910;151.156;2024-03-08T12:30:48;2.83;;;0.70;;
16113;SDS011;8161;-33.910;151.156;2024-03-08T12:33:18;3.77;;;0.90;;
16113;SDS011;8161;-33.910;151.156;2024-03-08T12:35:55;6.75;;;1.40;;
16113;SDS011;8161;-33.910;151.156;2024-03-08T12:38:23;5.95;;;1.38;;
16113;SDS011;8161;-33.910;151.156;2024-03-08T12:41:00;2.38;;;0.85;;
16113;SDS011;8161;-33.910;151.156;2024-03-08T12:43:27;3.50;;;0.73;;
16113;SDS011;8161;-33.910;151.156;2024-03-08T12:45:56;4.45;;;0.73;;
16113;SDS011;8161;-33.910;151.156;2024-03-08T12:48:23;2.95;;;0.80;;
16113;SDS011;8161;-33.910;151.156;2024-03-08T12:50:50;4.05;;;0.75;;
16113;SDS011;8161;-33.910;151.156;2024-03-08T12:53:19;3.47;;;0.75;;
16113;SDS011;8161;-33.910;151.156;2024-03-08T12:55:48;3.70;;;0.70;;
16113;SDS011;8161;-33.910;151.156;2024-03-08T12:58:15;4.88;;;0.90;;
16113;SDS011;8161;-33.910;151.156;2024-03-08T13:00:42;4.75;;;0.73;;
16113;SDS011;8161;-33.910;151.156;2024-03-08T13:03:10;4.73;;;0.70;;
16113;SDS011;8161;-33.910;151.156;2024-03-08T13:05:37;3.10;;;0.88;;
16113;SDS011;8161;-33.910;151.156;2024-03-08T13:08:08;4.55;;;0.73;;
16113;SDS011;8161;-33.910;151.156;2024-03-08T13:10:39;2.70;;;0.57;;
16113;SDS011;8161;-33.910;151.156;2024-03-08T13:13:09;3.17;;;0.63;;
16113;SDS011;8161;-33.910;151.156;2024-03-08T13:15:37;3.15;;;0.80;;
16113;SDS011;8161;-33.910;151.156;2024-03-08T13:18:08;4.05;;;0.60;;
16113;SDS011;8161;-33.910;151.156;2024-03-08T13:20:36;2.85;;;0.63;;
16113;SDS011;8161;-33.910;151.156;2024-03-08T13:23:06;4.13;;;1.00;;
16113;SDS011;8161;-33.910;151.156;2024-03-08T13:25:34;6.28;;;0.90;;
16113;SDS011;8161;-33.910;151.156;2024-03-08T13:28:04;4.70;;;0.88;;
16113;SDS011;8161;-33.910;151.156;2024-03-08T13:30:32;6.03;;;0.90;;
16113;SDS011;8161;-33.910;151.156;2024-03-08T13:33:01;3.65;;;0.70;;
16113;SDS011;8161;-33.910;151.156;2024-03-08T13:35:30;4.32;;;0.90;;
16113;SDS011;8161;-33.910;151.156;2024-03-08T13:37:58;3.53;;;0.68;;
16113;SDS011;8161;-33.910;151.156;2024-03-08T13:40:25;5.32;;;0.80;;
16113;SDS011;8161;-33.910;151.156;2024-03-08T13:42:52;5.05;;;0.80;;
16113;SDS011;8161;-33.910;151.156;2024-03-08T13:45:20;3.70;;;0.93;;
16113;SDS011;8161;-33.910;151.156;2024-03-08T13:47:52;3.95;;;0.65;;
16113;SDS011;8161;-33.910;151.156;2024-03-08T13:50:20;3.67;;;0.80;;
16113;SDS011;8161;-33.910;151.156;2024-03-08T13:52:47;2.42;;;0.88;;
16113;SDS011;8161;-33.910;151.156;2024-03-08T13:55:19;2.97;;;0.60;;
16113;SDS011;8161;-33.910;151.156;2024-03-08T13:57:50;3.40;;;0.80;;
16113;SDS011;8161;-33.910;151.156;2024-03-08T14:00:17;3.67;;;0.80;;
16113;SDS011;8161;-33.910;151.156;2024-03-08T14:02:50;5.50;;;1.37;;
16113;SDS011;8161;-33.910;151.156;2024-03-08T14:05:18;4.70;;;0.93;;
16113;SDS011;8161;-33.910;151.156;2024-03-08T14:07:45;2.15;;;0.50;;
16113;SDS011;8161;-33.910;151.156;2024-03-08T14:10:14;2.75;;;0.65;;
16113;SDS011;8161;-33.910;151.156;2024-03-08T14:12:45;1.30;;;0.52;;
16113;SDS011;8161;-33.910;151.156;2024-03-08T14:15:14;3.65;;;0.70;;
16113;SDS011;8161;-33.910;151.156;2024-03-08T14:17:42;3.50;;;0.67;;
16113;SDS011;8161;-33.910;151.156;2024-03-08T14:20:12;4.28;;;0.75;;
16113;SDS011;8161;-33.910;151.156;2024-03-08T14:22:39;4.03;;;0.70;;
16113;SDS011;8161;-33.910;151.156;2024-03-08T14:25:06;3.08;;;0.60;;
16113;SDS011;8161;-33.910;151.156;2024-03-08T14:27:43;4.78;;;1.30;;
16113;SDS011;8161;-33.910;151.156;2024-03-08T14:30:11;4.80;;;0.88;;
16113;SDS011;8161;-33.910;151.156;2024-03-08T14:32:53;3.80;;;0.70;;
16113;SDS011;8161;-33.910;151.156;2024-03-08T14:35:21;3.22;;;1.10;;
16113;SDS011;8161;-33.910;151.156;2024-03-08T14:37:50;4.55;;;1.00;;
16113;SDS011;8161;-33.910;151.156;2024-03-08T14:40:17;4.13;;;1.20;;
16113;SDS011;8161;-33.910;151.156;2024-03-08T14:42:51;5.00;;;1.30;;
16113;SDS011;8161;-33.910;151.156;2024-03-08T14:45:19;3.13;;;0.98;;